TRM weather

Kilo Airport
Tamaulipas, Mexico

Public forecast

Using degrees Celsius for public forecast. Weather courtesy of forecast.io.

Closest aviation weather report (METAR) to Kilo Airport

Closest report is General Lucio Blanco International Airport, 11.9 nm (22.1 km) NNW. Retrieved 2019/10/15 01:49 UTC (1 hour ago):

MMRX 150149Z 13007KT 10SM SKC 27/21 A2992

Closest aviation forecast (TAF) to Kilo Airport

Forecast is more than 6 hours old.

Closest forecast is General Lucio Blanco International Airport, 11.9 nm (22.1 km) NNW. Retrieved 2019/10/14 18:33 UTC (8 hours ago):

TAF MMRX 141630Z 1418/1518 15008KT P6SM SCT020 BECMG 1420/1421 13015KT FM150200 13012KT P6SM SKC BECMG 1505/1506 15010KT FM151000 15008KT 5SM HZ BKN015 TEMPO 1511/1515 3SM BR HZ FM151600 15012KT 6SM HZ SCT020